Time;durP1;ratioP1;P1;durP2;ratioP2;P2;SDS_P1;SDS_P2;PMS_P1;PMS_P2;Temp;Humidity;BMP_temperature;BMP_pressure;BME280_temperature;BME280_humidity;BME280_pressure;Samples;Min_cycle;Max_cycle;Signal;HPM_P1;HPM_P2
2021/01/29 00:02:06;;;;;;;37.58;16.15;;;;;;;0.80;100.00;96491.13;5012117;28;20090;-80
2021/01/29 00:04:33;;;;;;;42.40;16.60;;;;;;;0.82;100.00;96486.31;5016221;28;20046;-80
2021/01/29 00:06:59;;;;;;;40.92;17.48;;;;;;;0.81;100.00;96484.72;5035185;28;20516;-81
2021/01/29 00:09:25;;;;;;;41.08;16.98;;;;;;;0.87;100.00;96486.28;5039106;28;20040;-81
2021/01/29 00:11:51;;;;;;;44.35;16.63;;;;;;;0.76;100.00;96468.78;5039937;28;20048;-83
2021/01/29 00:14:18;;;;;;;41.78;16.63;;;;;;;0.80;100.00;96480.47;5037949;28;20049;-81
2021/01/29 00:16:44;;;;;;;40.20;16.15;;;;;;;0.83;100.00;96487.09;5019745;28;20105;-82
2021/01/29 00:19:11;;;;;;;41.90;16.52;;;;;;;0.90;100.00;96485.72;5019282;28;20053;-81
2021/01/29 00:21:37;;;;;;;36.58;15.95;;;;;;;0.96;100.00;96465.13;5038943;22;20049;-83
2021/01/29 00:24:04;;;;;;;36.85;15.63;;;;;;;1.00;100.00;96466.97;5078289;28;20044;-83
2021/01/29 00:26:30;;;;;;;37.38;15.95;;;;;;;0.95;100.00;96467.00;5078317;28;20052;-83
2021/01/29 00:28:56;;;;;;;35.67;15.57;;;;;;;0.95;100.00;96469.69;5061626;28;20118;-83
2021/01/29 00:31:22;;;;;;;34.63;15.73;;;;;;;0.98;100.00;96473.66;5077809;28;20044;-84
2021/01/29 00:33:48;;;;;;;37.35;16.70;;;;;;;0.97;100.00;96470.19;5045026;28;20060;-84
2021/01/29 00:36:14;;;;;;;39.30;15.98;;;;;;;0.94;100.00;96468.09;5060824;28;20044;-84
2021/01/29 00:39:15;;;;;;;32.78;14.95;;;;;;;0.99;100.00;96467.22;5095953;28;20046;-84
2021/01/29 00:41:42;;;;;;;32.75;14.02;;;;;;;1.03;100.00;96466.38;5078282;28;20044;-83
2021/01/29 00:44:08;;;;;;;29.70;14.70;;;;;;;1.05;100.00;96461.59;5078139;28;20040;-83
2021/01/29 00:46:34;;;;;;;33.08;15.10;;;;;;;1.07;100.00;96459.41;5095801;28;20046;-84
2021/01/29 00:49:01;;;;;;;34.65;15.90;;;;;;;0.95;100.00;96469.69;5070289;28;20040;-84
2021/01/29 00:51:27;;;;;;;31.17;14.98;;;;;;;0.98;100.00;96473.66;5078868;28;20395;-82
2021/01/29 00:53:53;;;;;;;33.25;14.45;;;;;;;0.81;100.00;96457.28;5075957;28;20055;-84
2021/01/29 00:56:19;;;;;;;32.15;14.43;;;;;;;0.85;100.00;96463.66;5075690;28;20051;-84
2021/01/29 00:58:46;;;;;;;27.50;12.57;;;;;;;0.70;100.00;96469.91;5060046;28;20510;-83
2021/01/29 01:01:13;;;;;;;23.55;11.60;;;;;;;0.71;100.00;96473.38;5095184;28;20040;-84
2021/01/29 01:03:40;;;;;;;28.88;12.80;;;;;;;0.62;100.00;96473.16;5059428;28;20052;-83
2021/01/29 01:06:09;;;;;;;32.72;13.45;;;;;;;0.51;100.00;96469.03;5095914;28;20090;-84
2021/01/29 01:08:35;;;;;;;32.42;14.48;;;;;;;0.52;100.00;96473.25;5077380;28;20063;-84
2021/01/29 01:11:01;;;;;;;35.78;15.55;;;;;;;0.60;100.00;96460.16;5077502;28;20036;-84
2021/01/29 01:13:27;;;;;;;34.33;15.82;;;;;;;0.74;100.00;96473.63;5076946;28;20054;-85
2021/01/29 01:15:54;;;;;;;46.00;18.52;;;;;;;0.71;100.00;96463.50;5060594;28;20071;-84
2021/01/29 01:18:20;;;;;;;45.50;18.48;;;;;;;0.75;100.00;96461.09;5063751;28;20159;-84
2021/01/29 01:20:49;;;;;;;48.13;19.10;;;;;;;0.77;100.00;96450.94;5095999;28;20032;-82
2021/01/29 01:23:18;;;;;;;50.42;19.27;;;;;;;0.77;100.00;96445.63;5077905;28;20127;-84
2021/01/29 01:25:46;;;;;;;53.53;19.17;;;;;;;0.88;100.00;96437.22;5044555;28;20078;-83
2021/01/29 01:28:15;;;;;;;43.67;18.35;;;;;;;0.95;100.00;96435.06;5097840;28;20054;-84
2021/01/29 01:30:42;;;;;;;46.10;18.83;;;;;;;0.91;100.00;96418.03;5080989;28;20040;-84
2021/01/29 01:33:08;;;;;;;46.97;18.67;;;;;;;1.05;100.00;96432.28;5079858;28;20051;-83
2021/01/29 01:35:35;;;;;;;48.35;17.88;;;;;;;1.08;100.00;96413.06;5078857;28;20484;-84
2021/01/29 01:38:04;;;;;;;41.60;17.27;;;;;;;1.05;100.00;96420.81;5061474;28;20430;-84
2021/01/29 01:40:36;;;;;;;47.08;19.20;;;;;;;0.90;100.00;96408.47;5080651;28;20199;-83
2021/01/29 01:43:04;;;;;;;42.05;18.13;;;;;;;0.96;100.00;96409.97;5063414;28;20097;-84
2021/01/29 01:45:30;;;;;;;41.22;17.00;;;;;;;0.97;100.00;96411.56;5079499;28;20047;-84
2021/01/29 01:48:07;;;;;;;43.83;18.13;;;;;;;0.97;100.00;96398.25;5097611;28;20044;-84
2021/01/29 01:50:37;;;;;;;42.88;16.92;;;;;;;0.94;100.00;96404.16;5078936;28;20082;-83
2021/01/29 01:53:18;;;;;;;45.38;18.10;;;;;;;0.87;100.00;96389.59;5096592;28;20050;-83
2021/01/29 01:55:47;;;;;;;44.03;17.85;;;;;;;0.88;100.00;96391.19;5078341;28;20063;-83
2021/01/29 01:58:15;;;;;;;48.38;18.13;;;;;;;0.91;100.00;96387.94;5077780;28;20071;-83
2021/01/29 02:00:41;;;;;;;43.15;17.95;;;;;;;0.96;100.00;96382.53;5090870;28;20049;-83
2021/01/29 02:03:18;;;;;;;44.20;17.58;;;;;;;0.98;100.00;96377.75;5078351;28;20105;-83
2021/01/29 02:05:45;;;;;;;48.30;18.10;;;;;;;0.91;100.00;96377.28;5083321;28;20055;-83
2021/01/29 02:08:14;;;;;;;46.55;18.08;;;;;;;0.87;100.00;96377.06;5064066;28;20055;-83
2021/01/29 02:10:40;;;;;;;42.30;17.35;;;;;;;0.88;100.00;96361.88;5068089;28;20048;-83
2021/01/29 02:13:08;;;;;;;53.08;18.88;;;;;;;0.77;100.00;96357.75;5071213;28;20154;-84
2021/01/29 02:15:44;;;;;;;45.85;18.17;;;;;;;0.83;100.00;96352.06;5067303;28;20048;-83
2021/01/29 02:18:17;;;;;;;48.28;18.73;;;;;;;0.86;100.00;96350.69;5083405;28;20075;-83
2021/01/29 02:21:04;;;;;;;45.22;18.50;;;;;;;0.87;100.00;96344.31;5064118;28;20059;-82
2021/01/29 02:24:13;;;;;;;46.53;18.17;;;;;;;0.82;100.00;96339.03;5082229;28;20048;-84
2021/01/29 02:27:17;;;;;;;47.38;19.05;;;;;;;0.75;100.00;96342.03;5063210;28;20445;-81
2021/01/29 02:30:01;;;;;;;53.17;19.80;;;;;;;0.68;100.00;96330.94;5079579;28;20267;-83
2021/01/29 02:33:07;;;;;;;53.83;19.67;;;;;;;0.78;100.00;96340.66;5079685;28;20115;-83
2021/01/29 02:35:53;;;;;;;55.30;21.10;;;;;;;0.81;100.00;96329.44;5081163;28;20046;-83
2021/01/29 02:38:31;;;;;;;53.17;20.65;;;;;;;0.83;100.00;96330.75;5096649;28;20036;-84
2021/01/29 02:41:54;;;;;;;55.20;21.25;;;;;;;0.90;100.00;96331.22;5078208;28;20047;-84
2021/01/29 02:44:43;;;;;;;54.97;20.83;;;;;;;0.84;100.00;96342.19;4998872;28;20072;-84
2021/01/29 02:47:29;;;;;;;63.50;22.33;;;;;;;0.84;100.00;96342.19;4980171;28;20450;-84
2021/01/29 02:50:09;;;;;;;66.93;23.73;;;;;;;0.79;100.00;96343.06;5044557;28;20249;-84
2021/01/29 02:53:16;;;;;;;72.90;23.77;;;;;;;0.78;100.00;96322.81;5087880;28;20479;-85
2021/01/29 02:56:01;;;;;;;76.78;24.35;;;;;;;0.70;100.00;96326.09;5042369;28;20067;-83
2021/01/29 02:58:54;;;;;;;122.18;26.20;;;;;;;0.66;100.00;96316.31;5087445;28;20064;-84
2021/01/29 03:01:46;;;;;;;87.18;27.67;;;;;;;0.69;100.00;96321.06;5102428;28;20033;-84
2021/01/29 03:04:29;;;;;;;95.95;27.33;;;;;;;0.56;100.00;96311.91;5068310;28;20242;-84
2021/01/29 03:07:13;;;;;;;145.98;29.67;;;;;;;0.47;100.00;96310.94;5082208;28;20044;-84
2021/01/29 03:09:46;;;;;;;129.98;30.02;;;;;;;0.44;100.00;96314.19;5061969;28;20051;-84
2021/01/29 03:12:20;;;;;;;98.38;28.52;;;;;;;0.39;100.00;96307.00;5101217;28;20040;-84
2021/01/29 03:14:58;;;;;;;100.25;28.73;;;;;;;0.53;100.00;96312.47;5082553;28;20056;-84
2021/01/29 03:17:34;;;;;;;111.57;30.20;;;;;;;0.55;100.00;96310.31;5081318;28;20464;-84
2021/01/29 03:20:09;;;;;;;100.55;29.70;;;;;;;0.43;100.00;96293.94;5064266;28;20075;-84
2021/01/29 03:22:42;;;;;;;97.93;29.17;;;;;;;0.46;100.00;96298.72;5063903;28;20062;-84
2021/01/29 03:25:18;;;;;;;95.53;28.55;;;;;;;0.50;100.00;96295.19;5063746;28;20424;-84
2021/01/29 03:27:49;;;;;;;89.18;26.38;;;;;;;0.61;100.00;96302.00;5098581;28;20467;-84
2021/01/29 03:30:29;;;;;;;86.40;26.52;;;;;;;0.57;100.00;96290.31;5063780;28;20052;-83
2021/01/29 03:32:58;;;;;;;72.43;23.77;;;;;;;0.40;100.00;96291.84;5099036;28;20070;-84
2021/01/29 03:35:45;;;;;;;71.00;25.58;;;;;;;0.36;100.00;96288.94;5080522;28;20051;-83
2021/01/29 03:38:22;;;;;;;75.75;24.48;;;;;;;0.48;100.00;96283.25;5063844;28;20044;-83
2021/01/29 03:40:58;;;;;;;70.80;24.65;;;;;;;0.46;100.00;96280.88;5080871;28;20048;-84
2021/01/29 03:43:52;;;;;;;70.97;25.42;;;;;;;0.51;100.00;96278.16;5080889;28;20047;-84
2021/01/29 03:46:28;;;;;;;71.85;24.50;;;;;;;0.22;100.00;96272.09;5089199;28;20042;-84
2021/01/29 03:49:08;;;;;;;68.78;23.85;;;;;;;0.31;100.00;96273.03;5077414;28;20059;-82
2021/01/29 03:52:00;;;;;;;68.97;24.48;;;;;;;0.47;100.00;96258.50;5083252;28;20058;-81
2021/01/29 03:54:34;;;;;;;62.88;23.20;;;;;;;0.45;100.00;96263.31;5081800;28;20040;-84
2021/01/29 03:57:13;;;;;;;61.20;22.50;;;;;;;0.43;100.00;96246.03;5062573;28;20044;-83
2021/01/29 04:00:18;;;;;;;68.15;24.55;;;;;;;0.22;100.00;96242.03;5097568;28;20040;-83
2021/01/29 04:03:08;;;;;;;69.33;24.10;;;;;;;0.40;100.00;96238.63;5097833;28;20040;-83
2021/01/29 04:05:45;;;;;;;66.32;23.35;;;;;;;0.40;100.00;96231.44;5079059;28;20043;-84
2021/01/29 04:08:25;;;;;;;68.57;23.38;;;;;;;0.39;100.00;96216.53;5078892;28;20043;-83
2021/01/29 04:10:54;;;;;;;68.28;23.55;;;;;;;0.31;100.00;96216.38;5062407;28;20062;-84
2021/01/29 04:13:28;;;;;;;64.72;23.92;;;;;;;0.21;100.00;96214.63;5080049;28;20066;-84
2021/01/29 04:15:57;;;;;;;63.20;23.30;;;;;;;0.29;100.00;96199.88;5098011;28;20040;-84
2021/01/29 04:18:26;;;;;;;66.30;23.10;;;;;;;0.35;100.00;96188.91;5062762;28;20418;-84
2021/01/29 04:21:06;;;;;;;65.68;22.88;;;;;;;0.27;100.00;96180.75;5081650;28;20054;-84
2021/01/29 04:23:48;;;;;;;59.38;21.58;;;;;;;0.18;100.00;96166.53;5084448;28;20040;-86
2021/01/29 04:26:21;;;;;;;57.63;22.30;;;;;;;-0.03;100.00;96182.69;5080483;28;20048;-85
2021/01/29 04:29:04;;;;;;;64.63;22.38;;;;;;;0.16;100.00;96180.09;5078951;28;20048;-84
2021/01/29 04:31:33;;;;;;;60.25;21.73;;;;;;;0.25;100.00;96173.06;5079833;28;20051;-85
2021/01/29 04:34:09;;;;;;;58.65;21.98;;;;;;;0.25;100.00;96159.78;5070732;28;20048;-85
2021/01/29 04:36:38;;;;;;;61.58;21.70;;;;;;;0.25;100.00;96166.94;5059477;28;20049;-85
2021/01/29 04:39:11;;;;;;;53.70;20.25;;;;;;;0.33;100.00;96153.03;5077793;28;20049;-85
2021/01/29 04:41:48;;;;;;;61.60;21.75;;;;;;;0.33;100.00;96159.13;5059285;28;20047;-84
2021/01/29 04:44:20;;;;;;;53.25;19.25;;;;;;;0.42;100.00;96148.63;5049562;28;20044;-85
2021/01/29 04:47:19;;;;;;;53.65;19.50;;;;;;;0.34;100.00;96135.97;5060367;28;20059;-84
2021/01/29 04:50:02;;;;;;;52.22;19.90;;;;;;;0.27;100.00;96131.00;5043597;28;20058;-84
2021/01/29 04:52:40;;;;;;;51.20;19.58;;;;;;;0.34;100.00;96135.97;5059774;28;20071;-85
2021/01/29 04:55:31;;;;;;;59.75;20.70;;;;;;;0.38;100.00;96135.13;5043881;28;20041;-85
2021/01/29 04:58:03;;;;;;;52.67;20.23;;;;;;;0.47;100.00;96132.59;5059251;28;20480;-84
2021/01/29 05:00:41;;;;;;;54.05;20.73;;;;;;;0.41;100.00;96117.78;5060625;28;20044;-84
2021/01/29 05:03:41;;;;;;;53.03;19.73;;;;;;;0.50;100.00;96113.38;5059538;28;20043;-84
2021/01/29 05:06:16;;;;;;;54.67;20.67;;;;;;;0.26;100.00;96107.34;5076927;28;20055;-83
2021/01/29 05:09:03;;;;;;;55.85;20.38;;;;;;;0.32;100.00;96108.84;5077734;28;20040;-83
2021/01/29 05:11:34;;;;;;;53.88;20.55;;;;;;;0.43;100.00;96110.31;5059516;28;20044;-84
2021/01/29 05:14:24;;;;;;;55.20;19.55;;;;;;;0.31;100.00;96088.66;5044489;28;20059;-84
2021/01/29 05:17:34;;;;;;;54.45;20.27;;;;;;;0.39;100.00;96099.44;5056232;28;20076;-83
2021/01/29 05:20:17;;;;;;;64.80;21.23;;;;;;;0.43;100.00;96094.34;5048194;28;20063;-84
2021/01/29 05:22:55;;;;;;;54.38;20.25;;;;;;;0.52;100.00;96095.25;5079454;28;20036;-84
2021/01/29 05:25:39;;;;;;;54.03;18.83;;;;;;;0.57;100.00;96082.66;5044741;28;20056;-83
2021/01/29 05:28:38;;;;;;;58.33;19.88;;;;;;;0.50;100.00;96071.59;5045915;28;20147;-84
2021/01/29 05:31:25;;;;;;;56.72;20.02;;;;;;;0.44;100.00;96051.44;5052028;28;20052;-85
2021/01/29 05:34:04;;;;;;;56.00;20.08;;;;;;;0.37;100.00;96056.34;5064975;28;20139;-84
2021/01/29 05:36:49;;;;;;;60.92;19.50;;;;;;;0.44;100.00;96043.47;5061725;28;20199;-84
2021/01/29 05:39:24;;;;;;;55.50;19.70;;;;;;;0.36;100.00;96027.38;5061227;28;20127;-85
2021/01/29 05:42:26;;;;;;;55.33;19.55;;;;;;;0.48;100.00;96033.84;5074737;28;20052;-85
2021/01/29 05:45:05;;;;;;;61.28;19.58;;;;;;;0.49;100.00;96021.31;5042313;28;20052;-83
2021/01/29 05:47:32;;;;;;;56.47;20.23;;;;;;;0.62;100.00;96034.66;5045775;28;20044;-83
2021/01/29 05:50:36;;;;;;;54.22;19.50;;;;;;;0.71;100.00;96024.16;5066772;28;20319;-84
2021/01/29 05:53:18;;;;;;;51.78;19.33;;;;;;;0.79;100.00;96020.03;5097038;28;20040;-84
2021/01/29 05:56:12;;;;;;;51.95;19.50;;;;;;;0.80;100.00;96008.31;5097365;28;20118;-84
2021/01/29 05:58:51;;;;;;;52.88;20.33;;;;;;;0.64;100.00;96005.09;5061150;28;20111;-83
2021/01/29 06:01:47;;;;;;;54.15;19.02;;;;;;;0.55;100.00;95996.97;5062464;28;20148;-83
2021/01/29 06:04:51;;;;;;;53.20;19.08;;;;;;;0.70;100.00;95987.19;5063623;28;20128;-84
2021/01/29 06:07:35;;;;;;;55.10;19.70;;;;;;;0.75;100.00;95992.41;5062971;28;20049;-83
2021/01/29 06:10:44;;;;;;;50.58;18.73;;;;;;;0.81;100.00;95981.38;5058800;28;20045;-83
2021/01/29 06:13:37;;;;;;;52.22;18.92;;;;;;;0.87;100.00;95982.88;5049169;28;20056;-83
2021/01/29 06:16:12;;;;;;;44.75;17.42;;;;;;;0.89;100.00;95975.38;5040517;28;20051;-81
2021/01/29 06:18:50;;;;;;;51.20;19.30;;;;;;;0.85;100.00;95974.34;5062351;28;20044;-83
2021/01/29 06:22:12;;;;;;;47.15;18.83;;;;;;;0.95;100.00;95968.88;5046866;28;20078;-83
2021/01/29 06:25:20;;;;;;;48.20;18.95;;;;;;;0.82;100.00;95968.84;5035889;23;20110;-80
2021/01/29 06:28:14;;;;;;;46.47;17.30;;;;;;;0.85;100.00;95966.38;5018468;28;20081;-80
2021/01/29 06:31:05;;;;;;;46.15;18.35;;;;;;;0.87;100.00;95953.56;5013064;28;20050;-78
2021/01/29 06:33:57;;;;;;;48.20;19.58;;;;;;;0.83;100.00;95949.91;4999211;28;20128;-81
2021/01/29 06:36:29;;;;;;;50.83;19.02;;;;;;;0.76;100.00;95944.19;5018164;28;20056;-80
2021/01/29 06:39:38;;;;;;;49.65;18.88;;;;;;;0.85;100.00;95942.41;5015005;28;20601;-80
2021/01/29 06:42:20;;;;;;;54.22;19.83;;;;;;;0.87;100.00;95936.78;4978622;28;20093;-81
2021/01/29 06:45:10;;;;;;;49.72;18.92;;;;;;;0.99;100.00;95927.22;5003102;28;20416;-79
2021/01/29 06:48:02;;;;;;;53.13;20.25;;;;;;;0.74;100.00;95916.28;4997111;28;20050;-81
2021/01/29 06:50:43;;;;;;;53.90;19.35;;;;;;;0.75;100.00;95907.22;5015931;28;20049;-80
2021/01/29 06:53:28;;;;;;;53.58;20.73;;;;;;;0.72;100.00;95900.59;5017311;28;20034;-80
2021/01/29 06:56:03;;;;;;;59.33;20.65;;;;;;;0.78;100.00;95896.75;5015936;28;20042;-82
2021/01/29 06:59:03;;;;;;;42.47;15.02;;;;;;;0.80;100.00;95886.56;5013483;28;20048;-80
2021/01/29 07:01:33;;;;;;;50.03;18.67;;;;;;;0.88;100.00;95885.88;4995976;28;20117;-79
2021/01/29 07:04:27;;;;;;;53.70;19.45;;;;;;;0.90;100.00;95874.97;4989566;28;20114;-80
2021/01/29 07:07:02;;;;;;;49.28;19.50;;;;;;;0.82;100.00;95873.78;4983934;28;20042;-81
2021/01/29 07:10:08;;;;;;;53.57;20.73;;;;;;;0.80;100.00;95869.84;5006038;28;20034;-81
2021/01/29 07:12:58;;;;;;;49.78;19.30;;;;;;;0.79;100.00;95850.41;4978363;28;20074;-81
2021/01/29 07:15:50;;;;;;;54.17;19.48;;;;;;;0.91;100.00;95858.66;4969092;28;20042;-80
2021/01/29 07:18:35;;;;;;;49.05;18.80;;;;;;;0.93;100.00;95845.84;4972083;28;20038;-81
2021/01/29 07:21:30;;;;;;;49.95;19.10;;;;;;;0.83;100.00;95840.72;4997986;28;20128;-81
2021/01/29 07:24:20;;;;;;;58.15;20.17;;;;;;;0.78;100.00;95837.38;5019182;28;20046;-80
2021/01/29 07:27:15;;;;;;;63.85;22.05;;;;;;;0.78;100.00;95834.69;5001361;28;20390;-79
2021/01/29 07:30:01;;;;;;;55.88;20.23;;;;;;;0.90;100.00;95821.69;4984860;28;20046;-82
2021/01/29 07:32:50;;;;;;;58.13;22.25;;;;;;;0.99;100.00;95828.69;5009547;28;20045;-80
2021/01/29 07:35:49;;;;;;;56.38;21.40;;;;;;;1.01;100.00;95815.84;5014624;28;20588;-81
2021/01/29 07:38:31;;;;;;;54.85;21.85;;;;;;;0.95;100.00;95811.72;5006505;28;20113;-81
2021/01/29 07:41:01;;;;;;;56.60;21.65;;;;;;;0.96;100.00;95817.81;5015023;28;20046;-82
2021/01/29 07:43:42;;;;;;;55.85;21.50;;;;;;;1.02;100.00;95798.00;5012407;28;20039;-82
2021/01/29 07:46:34;;;;;;;60.63;22.02;;;;;;;0.93;100.00;95792.56;4985307;28;20043;-79
2021/01/29 07:49:25;;;;;;;54.10;21.05;;;;;;;1.04;100.00;95783.28;4994453;28;20042;-78
2021/01/29 07:52:04;;;;;;;52.35;20.40;;;;;;;1.08;100.00;95781.63;4982439;28;20042;-80
2021/01/29 07:54:53;;;;;;;59.10;21.15;;;;;;;1.02;100.00;95780.13;4994876;28;20494;-79
2021/01/29 07:57:22;;;;;;;51.25;21.30;;;;;;;1.02;100.00;95766.81;4994749;28;20669;-78
2021/01/29 08:00:20;;;;;;;49.85;19.92;;;;;;;1.14;100.00;95766.28;4995905;28;20057;-80
2021/01/29 08:02:59;;;;;;;55.17;20.23;;;;;;;1.18;100.00;95754.75;5011904;28;20038;-80
2021/01/29 08:05:29;;;;;;;53.92;20.95;;;;;;;1.03;100.00;95751.63;5008944;28;20042;-80
2021/01/29 08:08:02;;;;;;;49.17;19.48;;;;;;;1.18;100.00;95744.09;5002953;28;20524;-80
2021/01/29 08:10:33;;;;;;;47.95;20.42;;;;;;;1.27;100.00;95739.59;5013873;28;20042;-78
2021/01/29 08:13:02;;;;;;;47.65;20.13;;;;;;;1.29;100.00;95744.66;4997634;28;20433;-75
2021/01/29 08:15:33;;;;;;;46.47;19.90;;;;;;;1.41;100.00;95741.44;5001414;28;20077;-77
2021/01/29 08:18:33;;;;;;;42.03;19.27;;;;;;;1.60;100.00;95734.81;5010667;28;20044;-80
2021/01/29 08:21:20;;;;;;;45.08;19.20;;;;;;;1.76;100.00;95735.22;4993874;28;20057;-78
2021/01/29 08:24:19;;;;;;;45.22;19.48;;;;;;;1.80;100.00;95725.53;4980212;28;20049;-78
2021/01/29 08:27:09;;;;;;;37.95;17.92;;;;;;;1.92;100.00;95728.41;4997855;28;20046;-78
2021/01/29 08:30:26;;;;;;;40.95;18.38;;;;;;;1.55;100.00;95712.84;5002410;28;20045;-79
2021/01/29 08:33:11;;;;;;;35.63;17.02;;;;;;;1.85;100.00;95709.41;4966303;28;20062;-78
2021/01/29 08:36:02;;;;;;;43.92;19.88;;;;;;;2.03;100.00;95703.06;5001140;28;20537;-77
2021/01/29 08:38:42;;;;;;;43.03;20.20;;;;;;;2.11;100.00;95696.16;5017190;28;20475;-78
2021/01/29 08:41:18;;;;;;;39.67;18.55;;;;;;;2.01;100.00;95680.44;5015753;28;20061;-79
2021/01/29 08:44:09;;;;;;;41.58;18.98;;;;;;;2.03;100.00;95679.03;5001447;28;20129;-79
2021/01/29 08:46:44;;;;;;;35.70;18.83;;;;;;;2.11;100.00;95666.81;5012948;28;20057;-80
2021/01/29 08:49:40;;;;;;;38.45;17.92;;;;;;;2.25;100.00;95660.25;5003157;28;20621;-79
2021/01/29 08:52:31;;;;;;;37.05;18.30;;;;;;;2.22;100.00;95673.47;5002659;28;20043;-79
2021/01/29 08:55:06;;;;;;;42.45;19.35;;;;;;;2.32;100.00;95659.81;4991450;28;20177;-78
2021/01/29 08:58:09;;;;;;;37.63;16.77;;;;;;;2.33;100.00;95656.84;5008391;28;20038;-77
2021/01/29 09:00:36;;;;;;;28.75;14.77;;;;;;;2.39;100.00;95630.78;5000412;28;20046;-78
2021/01/29 09:03:26;;;;;;;24.83;13.68;;;;;;;2.49;100.00;95628.59;5003629;28;20105;-78
2021/01/29 09:06:09;;;;;;;21.25;11.20;;;;;;;2.53;100.00;95621.53;5007430;28;20099;-78
2021/01/29 09:08:35;;;;;;;26.05;11.75;;;;;;;2.56;100.00;95632.66;5010038;28;20091;-79
2021/01/29 09:11:14;;;;;;;25.65;11.00;;;;;;;2.44;100.00;95626.09;5006583;28;20750;-77
2021/01/29 09:13:43;;;;;;;14.80;8.05;;;;;;;2.67;100.00;95607.25;4989932;28;20042;-78
2021/01/29 09:16:22;;;;;;;13.23;6.57;;;;;;;2.70;100.00;95623.44;5009180;28;20037;-78
2021/01/29 09:19:07;;;;;;;10.65;6.22;;;;;;;2.72;100.00;95599.06;5006606;28;20050;-80
2021/01/29 09:21:52;;;;;;;12.37;6.20;;;;;;;2.63;100.00;95603.63;5007204;28;20137;-78
2021/01/29 09:24:23;;;;;;;8.80;4.78;;;;;;;2.67;100.00;95604.56;5004687;28;20050;-79
2021/01/29 09:27:05;;;;;;;13.85;5.88;;;;;;;2.69;100.00;95597.03;5006934;28;20065;-79
2021/01/29 09:29:43;;;;;;;12.77;5.90;;;;;;;2.57;100.00;95586.97;5005665;28;20037;-80
2021/01/29 09:32:15;;;;;;;9.88;5.85;;;;;;;2.56;100.00;95596.09;5006850;28;20038;-80
2021/01/29 09:34:45;;;;;;;17.35;6.65;;;;;;;2.53;100.00;95592.16;4990486;28;20543;-80
2021/01/29 09:37:22;;;;;;;10.70;5.63;;;;;;;2.74;100.00;95580.84;5006455;28;20046;-78
2021/01/29 09:40:05;;;;;;;9.45;5.97;;;;;;;2.82;100.00;95586.19;5004853;28;20461;-78
2021/01/29 09:42:43;;;;;;;15.13;5.95;;;;;;;2.83;100.00;95579.75;5006004;28;20058;-78
2021/01/29 09:45:23;;;;;;;13.07;5.72;;;;;;;2.85;100.00;95579.44;4989631;28;20061;-78
2021/01/29 09:47:59;;;;;;;12.90;6.40;;;;;;;2.66;100.00;95576.31;5005844;28;20042;-79
2021/01/29 09:50:27;;;;;;;13.63;6.82;;;;;;;2.77;100.00;95572.19;5000883;28;20066;-79
2021/01/29 09:52:54;;;;;;;15.82;6.05;;;;;;;2.82;100.00;95567.50;5004018;28;20038;-77
2021/01/29 09:55:29;;;;;;;12.50;5.57;;;;;;;2.77;100.00;95558.84;5010847;28;20076;-79
2021/01/29 09:58:36;;;;;;;10.63;5.40;;;;;;;2.88;100.00;95562.78;5015544;28;20485;-77
2021/01/29 10:01:09;;;;;;;9.77;4.60;;;;;;;2.82;100.00;95562.16;4980702;28;20053;-78
2021/01/29 10:04:03;;;;;;;7.88;4.68;;;;;;;2.94;100.00;95562.28;5016667;28;20102;-78
2021/01/29 10:06:34;;;;;;;8.18;4.28;;;;;;;3.00;100.00;95555.69;5016208;28;20050;-78
2021/01/29 10:09:08;;;;;;;7.82;4.50;;;;;;;2.98;100.00;95555.22;5015446;28;20048;-79
2021/01/29 10:11:45;;;;;;;8.55;4.15;;;;;;;2.86;100.00;95536.38;4998872;28;20053;-78
2021/01/29 10:14:32;;;;;;;12.45;4.90;;;;;;;3.02;100.00;95547.34;5016346;28;20045;-79
2021/01/29 10:17:24;;;;;;;10.95;4.45;;;;;;;3.02;100.00;95540.09;5016440;28;20046;-75
2021/01/29 10:20:03;;;;;;;11.02;4.38;;;;;;;3.08;100.00;95541.53;5018151;28;20421;-78
2021/01/29 10:23:00;;;;;;;11.80;4.20;;;;;;;2.92;100.00;95545.00;5017487;28;20056;-79
2021/01/29 10:25:33;;;;;;;9.55;3.88;;;;;;;3.04;100.00;95526.44;5015774;28;20050;-77
2021/01/29 10:28:55;;;;;;;8.13;4.03;;;;;;;3.05;100.00;95536.00;5000843;28;20045;-77
2021/01/29 10:31:23;;;;;;;7.03;3.65;;;;;;;2.99;100.00;95529.28;4998483;28;20456;-79
2021/01/29 10:34:03;;;;;;;6.82;3.75;;;;;;;2.97;100.00;95520.78;4990396;28;20042;-81
2021/01/29 10:36:33;;;;;;;6.80;3.67;;;;;;;2.94;100.00;95518.75;5008015;28;20398;-81
2021/01/29 10:39:02;;;;;;;7.80;3.83;;;;;;;2.82;100.00;95523.94;5006623;28;20532;-79
2021/01/29 10:41:37;;;;;;;10.85;4.65;;;;;;;2.81;100.00;95517.84;4988760;28;20413;-80
2021/01/29 10:44:12;;;;;;;6.57;3.97;;;;;;;2.94;100.00;95527.53;5004404;28;20042;-79
2021/01/29 10:46:57;;;;;;;9.00;3.53;;;;;;;2.97;100.00;95532.25;5006083;28;20042;-80
2021/01/29 10:49:51;;;;;;;9.88;4.07;;;;;;;3.08;100.00;95527.38;5005557;28;20057;-80
2021/01/29 10:52:17;;;;;;;7.13;3.78;;;;;;;3.10;100.00;95522.47;4988258;28;20065;-81
2021/01/29 10:54:43;;;;;;;8.43;3.60;;;;;;;3.15;100.00;95523.09;5020462;28;20052;-82
2021/01/29 10:57:24;;;;;;;10.07;4.30;;;;;;;3.04;100.00;95521.09;5020565;28;20109;-82
2021/01/29 10:59:59;;;;;;;9.10;3.92;;;;;;;3.10;100.00;95519.81;5022036;28;20050;-80
2021/01/29 11:02:40;;;;;;;7.57;4.00;;;;;;;3.20;100.00;95521.38;5024259;28;20065;-81
2021/01/29 11:05:21;;;;;;;9.43;3.90;;;;;;;3.09;100.00;95523.59;5026123;28;20633;-81
2021/01/29 11:07:51;;;;;;;7.97;3.55;;;;;;;3.15;100.00;95522.31;5025776;28;20034;-81
2021/01/29 11:10:20;;;;;;;10.75;3.25;;;;;;;3.26;100.00;95518.19;5021826;28;20042;-82
2021/01/29 11:12:59;;;;;;;7.03;2.67;;;;;;;3.24;100.00;95525.75;5004440;28;20049;-82
2021/01/29 11:15:45;;;;;;;7.63;2.78;;;;;;;3.26;100.00;95528.09;5002693;28;20110;-83
2021/01/29 11:18:25;;;;;;;7.20;2.22;;;;;;;3.17;100.00;95526.22;5004027;28;20077;-82
2021/01/29 11:21:02;;;;;;;5.78;2.50;;;;;;;3.28;100.00;95520.56;5004523;28;20053;-83
2021/01/29 11:23:37;;;;;;;8.13;2.50;;;;;;;3.12;100.00;95517.63;5005113;28;20042;-82
2021/01/29 11:26:22;;;;;;;;;;;;;;;3.28;100.00;95524.00;4989716;28;20054;-82
2021/01/29 11:29:02;;;;;;;7.25;2.72;;;;;;;3.18;100.00;95508.31;5005849;28;19922;-84
2021/01/29 11:31:43;;;;;;;5.43;2.20;;;;;;;3.30;100.00;95523.69;5014103;28;20076;-83
2021/01/29 11:34:28;;;;;;;7.22;2.53;;;;;;;3.44;100.00;95519.69;5022115;28;20100;-84
2021/01/29 11:37:03;;;;;;;6.68;2.47;;;;;;;3.54;100.00;95523.91;5002994;28;20073;-84
2021/01/29 11:39:40;;;;;;;4.60;2.15;;;;;;;3.56;100.00;95519.78;5021190;28;20189;-84
2021/01/29 11:42:24;;;;;;;7.80;2.70;;;;;;;3.48;100.00;95507.28;5018267;28;20042;-84
2021/01/29 11:45:02;;;;;;;6.57;2.30;;;;;;;3.59;100.00;95508.47;5006650;28;20053;-86
2021/01/29 11:47:52;;;;;;;9.27;2.50;;;;;;;3.11;100.00;95518.72;5004439;28;20077;-83
2021/01/29 11:50:29;;;;;;;8.40;3.90;;;;;;;3.32;100.00;95508.91;5022175;28;20073;-86
2021/01/29 11:53:04;;;;;;;6.40;2.97;;;;;;;3.35;100.00;95510.16;5020636;28;20060;-85
2021/01/29 11:55:42;;;;;;;10.80;2.80;;;;;;;3.32;100.00;95518.81;5005810;28;20124;-83
2021/01/29 11:58:15;;;;;;;6.80;2.75;;;;;;;3.36;100.00;95515.16;5004791;28;20041;-84
2021/01/29 12:01:12;;;;;;;5.43;2.30;;;;;;;3.43;100.00;95504.00;5006534;28;20053;-84
2021/01/29 12:03:48;;;;;;;6.20;2.40;;;;;;;3.46;100.00;95509.47;5002120;28;20062;-83
2021/01/29 12:06:34;;;;;;;9.05;2.25;;;;;;;3.12;100.00;95493.56;4988646;28;20056;-85
2021/01/29 12:09:06;;;;;;;10.52;2.55;;;;;;;3.37;100.00;95492.69;4994276;28;20109;-85
2021/01/29 12:11:41;;;;;;;7.45;2.70;;;;;;;3.56;100.00;95511.00;4990094;28;20050;-84
2021/01/29 12:14:24;;;;;;;7.57;2.50;;;;;;;3.36;100.00;95491.09;4997658;28;20065;-85
2021/01/29 12:17:00;;;;;;;6.05;2.45;;;;;;;3.34;100.00;95500.56;5002105;28;20518;-86
2021/01/29 12:19:45;;;;;;;7.68;2.55;;;;;;;3.51;100.00;95497.81;4998404;28;20073;-86
2021/01/29 12:22:31;;;;;;;6.18;2.53;;;;;;;3.18;100.00;95486.91;4998615;28;20042;-85